createdAt,value
2023-03-12T00:01:48.132Z,100609.53
2023-03-12T00:04:18.645Z,100605.75
2023-03-12T00:06:49.153Z,100603.06
2023-03-12T00:13:11.790Z,100613.50
2023-03-12T00:15:42.476Z,100612.59
2023-03-12T00:18:13.045Z,100615.75
2023-03-12T00:20:43.409Z,100616.19
2023-03-12T00:23:13.899Z,100611.22
2023-03-12T00:25:46.792Z,100615.16
2023-03-12T00:28:20.013Z,100616.44
2023-03-12T00:30:52.187Z,100607.25
2023-03-12T00:33:22.876Z,100603.88
2023-03-12T00:35:53.291Z,100602.59
2023-03-12T00:38:24.038Z,100610.59
2023-03-12T00:40:54.511Z,100604.16
2023-03-12T00:43:27.771Z,100572.28
2023-03-12T00:45:58.395Z,100604.34
2023-03-12T00:48:28.977Z,100598.53
2023-03-12T00:50:59.597Z,100598.72
2023-03-12T00:53:30.062Z,100579.31
2023-03-12T00:56:00.811Z,100592.69
2023-03-12T00:58:34.239Z,100596.53
2023-03-12T01:01:04.786Z,100595.94
2023-03-12T01:03:35.393Z,100589.03
2023-03-12T01:06:06.128Z,100590.19
2023-03-12T01:08:36.843Z,100587.53
2023-03-12T01:11:07.857Z,100589.81
2023-03-12T01:13:41.005Z,100582.38
2023-03-12T01:16:11.924Z,100583.09
2023-03-12T01:18:42.621Z,100576.22
2023-03-12T01:21:13.142Z,100589.41
2023-03-12T01:23:43.703Z,100590.09
2023-03-12T01:26:14.358Z,100583.09
2023-03-12T01:28:47.770Z,100585.34
2023-03-12T01:31:21.154Z,100579.28
2023-03-12T01:33:53.140Z,100577.72
2023-03-12T01:36:25.390Z,100583.56
2023-03-12T01:38:58.277Z,100584.03
2023-03-12T01:41:32.536Z,100575.94
2023-03-12T01:44:06.826Z,100578.91
2023-03-12T01:46:38.853Z,100546.22
2023-03-12T01:49:19.027Z,100581.47
2023-03-12T01:51:55.382Z,100576.63
2023-03-12T01:54:33.018Z,100576.16
2023-03-12T01:57:04.224Z,100540.75
2023-03-12T01:59:42.095Z,100568.09
2023-03-12T02:02:12.626Z,100574.91
2023-03-12T02:04:46.026Z,100578.69
2023-03-12T02:07:18.569Z,100573.72
2023-03-12T02:09:51.982Z,100572.94
2023-03-12T02:12:22.621Z,100567.97
2023-03-12T02:14:56.265Z,100566.41
2023-03-12T02:17:27.407Z,100568.16
2023-03-12T02:20:08.129Z,100560.25
2023-03-12T02:22:40.402Z,100564.22
2023-03-12T02:25:33.657Z,100561.06
2023-03-12T02:28:07.149Z,100532.75
2023-03-12T02:30:38.514Z,100559.69
2023-03-12T02:33:11.833Z,100554.03
2023-03-12T02:35:42.533Z,100549.78
2023-03-12T02:38:36.501Z,100558.88
2023-03-12T02:41:15.622Z,100555.03
2023-03-12T02:43:48.874Z,100564.53
2023-03-12T02:46:20.309Z,100561.06
2023-03-12T02:48:51.085Z,100562.44
2023-03-12T02:51:22.151Z,100567.63
2023-03-12T02:53:55.195Z,100564.25
2023-03-12T02:56:31.982Z,100552.25
2023-03-12T02:59:04.469Z,100533.84
2023-03-12T03:01:38.296Z,100564.72
2023-03-12T03:04:10.540Z,100521.94
2023-03-12T03:06:44.176Z,100560.25
2023-03-12T03:09:15.512Z,100568.88
2023-03-12T03:11:48.706Z,100562.63
2023-03-12T03:14:19.789Z,100538.16
2023-03-12T03:16:53.048Z,100544.88
2023-03-12T03:19:26.308Z,100566.78
2023-03-12T03:21:57.016Z,100564.59
2023-03-12T03:24:27.751Z,100551.31
2023-03-12T03:27:00.894Z,100562.00
2023-03-12T03:29:31.656Z,100560.72
2023-03-12T03:32:03.143Z,100569.44
2023-03-12T03:34:33.812Z,100574.38
2023-03-12T03:37:04.335Z,100568.53
2023-03-12T03:39:36.443Z,100567.25
2023-03-12T03:42:09.978Z,100558.25
2023-03-12T03:44:40.681Z,100562.09
2023-03-12T03:47:11.386Z,100513.47
2023-03-12T03:49:42.067Z,100554.88
2023-03-12T03:52:12.669Z,100525.53
2023-03-12T03:54:43.309Z,100564.78
2023-03-12T03:57:16.779Z,100557.34
2023-03-12T03:59:47.337Z,100564.06
2023-03-12T04:02:18.621Z,100570.09
2023-03-12T04:04:49.215Z,100565.16
2023-03-12T04:07:21.401Z,100562.00
2023-03-12T04:09:52.215Z,100569.16
2023-03-12T04:12:26.162Z,100559.44
2023-03-12T04:14:56.838Z,100562.81
2023-03-12T04:17:27.453Z,100565.00
2023-03-12T04:20:00.592Z,100554.88
2023-03-12T04:22:31.236Z,100536.56
2023-03-12T04:25:01.872Z,100564.50
2023-03-12T04:27:35.308Z,100561.44
2023-03-12T04:30:06.752Z,100560.63
2023-03-12T04:32:39.119Z,100556.06
2023-03-12T04:35:10.499Z,100562.69
2023-03-12T04:37:40.971Z,100564.69
2023-03-12T04:40:14.041Z,100561.91
2023-03-12T04:42:48.058Z,100551.63
2023-03-12T04:45:19.383Z,100566.97
2023-03-12T04:47:51.261Z,100566.50
2023-03-12T04:50:22.308Z,100566.50
2023-03-12T04:52:52.940Z,100553.69
2023-03-12T04:55:23.647Z,100562.22
2023-03-12T04:57:57.230Z,100560.44
2023-03-12T05:00:28.605Z,100552.91
2023-03-12T05:02:59.747Z,100556.34
2023-03-12T05:05:30.907Z,100554.59
2023-03-12T05:08:02.116Z,100534.34
2023-03-12T05:10:33.200Z,100546.84
2023-03-12T05:13:06.719Z,100553.16
2023-03-12T05:15:40.049Z,100529.50
2023-03-12T05:18:10.624Z,100539.56
2023-03-12T05:20:41.577Z,100550.66
2023-03-12T05:23:12.145Z,100541.03
2023-03-12T05:25:43.224Z,100539.19
2023-03-12T05:28:16.679Z,100520.28
2023-03-12T05:30:47.253Z,100538.50
2023-03-12T05:33:18.016Z,100535.03
2023-03-12T05:35:48.678Z,100534.53
2023-03-12T05:38:19.436Z,100517.41
2023-03-12T05:40:55.982Z,100533.34
2023-03-12T05:43:30.512Z,100531.47
2023-03-12T05:46:02.519Z,100533.66
2023-03-12T05:48:33.345Z,100529.97
2023-03-12T05:51:04.329Z,100530.66
2023-03-12T05:53:36.703Z,100520.56
2023-03-12T05:56:08.263Z,100512.66
2023-03-12T05:58:41.886Z,100520.94
2023-03-12T06:01:18.106Z,100515.13
2023-03-12T06:03:49.640Z,100509.47
2023-03-12T06:06:20.793Z,100513.03
2023-03-12T06:08:51.620Z,100512.34
2023-03-12T06:11:22.422Z,100511.16
2023-03-12T06:13:55.753Z,100506.09
2023-03-12T06:16:28.481Z,100507.97
2023-03-12T06:19:00.900Z,100502.38
2023-03-12T06:21:33.956Z,100480.78
2023-03-12T06:24:05.779Z,100484.59
2023-03-12T06:26:47.511Z,100487.97
2023-03-12T06:29:20.613Z,100479.78
2023-03-12T06:31:52.406Z,100487.78
2023-03-12T06:34:22.991Z,100489.56
2023-03-12T06:36:53.606Z,100482.09
2023-03-12T06:39:24.499Z,100481.09
2023-03-12T06:41:55.025Z,100482.34
2023-03-12T06:44:28.167Z,100488.59
2023-03-12T06:46:58.912Z,100486.50
2023-03-12T06:49:32.288Z,100483.31
2023-03-12T06:52:02.936Z,100427.88
2023-03-12T06:54:33.612Z,100474.22
2023-03-12T06:57:04.169Z,100469.28
2023-03-12T06:59:37.246Z,100468.91
2023-03-12T07:02:08.040Z,100462.22
2023-03-12T07:04:38.699Z,100450.69
2023-03-12T07:07:09.438Z,100467.75
2023-03-12T07:09:40.059Z,100460.16
2023-03-12T07:12:11.715Z,100466.56
2023-03-12T07:14:44.948Z,100442.94
2023-03-12T07:17:15.692Z,100463.59
2023-03-12T07:19:48.111Z,100459.38
2023-03-12T07:22:19.851Z,100451.56
2023-03-12T07:24:51.406Z,100446.63
2023-03-12T07:27:22.376Z,100454.75
2023-03-12T07:29:55.466Z,100446.78
2023-03-12T07:32:26.457Z,100460.81
2023-03-12T07:34:57.109Z,100457.88
2023-03-12T07:37:27.588Z,100444.84
2023-03-12T07:39:58.375Z,100434.41
2023-03-12T07:42:29.336Z,100442.94
2023-03-12T07:45:04.300Z,100453.19
2023-03-12T07:47:34.719Z,100453.00
2023-03-12T07:50:05.574Z,100450.53
2023-03-12T07:52:36.208Z,100447.91
2023-03-12T07:55:07.243Z,100454.69
2023-03-12T07:57:38.034Z,100455.47
2023-03-12T08:00:13.082Z,100459.06
2023-03-12T08:02:44.142Z,100460.19
2023-03-12T08:05:14.922Z,100449.34
2023-03-12T08:07:45.556Z,100445.56
2023-03-12T08:10:16.136Z,100435.63
2023-03-12T08:12:47.040Z,100425.19
2023-03-12T08:15:20.631Z,100350.75
2023-03-12T08:17:51.514Z,100401.63
2023-03-12T08:20:22.343Z,100403.22
2023-03-12T08:22:52.976Z,100404.81
2023-03-12T08:25:24.943Z,100400.00
2023-03-12T08:27:55.734Z,100410.34
2023-03-12T08:30:30.302Z,100417.63
2023-03-12T08:33:01.223Z,100418.72
2023-03-12T08:35:32.172Z,100418.03
2023-03-12T08:38:02.865Z,100419.44
2023-03-12T08:40:33.534Z,100427.47
2023-03-12T08:43:04.275Z,100408.97
2023-03-12T08:45:38.234Z,100422.31
2023-03-12T08:48:10.051Z,100422.69
2023-03-12T08:50:40.780Z,100429.78
2023-03-12T08:53:12.110Z,100423.03
2023-03-12T08:55:42.951Z,100421.28
2023-03-12T08:58:13.513Z,100431.56
2023-03-12T09:00:47.058Z,100414.00
2023-03-12T09:03:18.074Z,100416.28
2023-03-12T09:05:49.088Z,100427.84
2023-03-12T09:08:20.296Z,100422.16
2023-03-12T09:10:51.858Z,100422.34
2023-03-12T09:13:22.796Z,100420.75
2023-03-12T09:15:56.077Z,100420.19
2023-03-12T09:18:27.063Z,100412.28
2023-03-12T09:20:58.995Z,100406.34
2023-03-12T09:23:30.549Z,100412.19
2023-03-12T09:26:01.336Z,100415.94
2023-03-12T09:28:31.949Z,100413.44
2023-03-12T09:31:08.331Z,100413.63
2023-03-12T09:33:39.008Z,100410.56
2023-03-12T09:36:10.142Z,100409.16
2023-03-12T09:38:40.700Z,100403.97
2023-03-12T09:41:21.142Z,100423.91
2023-03-12T09:43:57.087Z,100425.78
2023-03-12T09:46:37.760Z,100403.06
2023-03-12T09:49:19.089Z,100384.91
2023-03-12T09:51:54.171Z,100361.78
2023-03-12T09:54:31.236Z,100363.06
2023-03-12T09:57:05.710Z,100359.63
2023-03-12T09:59:37.094Z,100354.88
2023-03-12T10:02:27.751Z,100343.84
2023-03-12T10:05:02.214Z,100335.88
2023-03-12T10:07:37.827Z,100335.59
2023-03-12T10:10:33.018Z,100336.41
2023-03-12T10:13:21.884Z,100338.50
2023-03-12T10:16:04.770Z,100335.34
2023-03-12T10:18:56.088Z,100329.47
2023-03-12T10:21:37.703Z,100325.78
2023-03-12T10:24:25.315Z,100271.81
2023-03-12T10:27:01.958Z,100314.50
2023-03-12T10:29:35.718Z,100316.44
2023-03-12T10:32:11.257Z,100304.28
2023-03-12T10:34:48.469Z,100305.72
2023-03-12T10:37:24.823Z,100313.94
2023-03-12T10:39:56.385Z,100263.81
2023-03-12T10:42:28.296Z,100292.91
2023-03-12T10:45:02.978Z,100280.81
2023-03-12T10:47:38.579Z,100284.91
2023-03-12T10:50:23.828Z,100290.22
2023-03-12T10:52:57.341Z,100280.06
2023-03-12T10:55:30.071Z,100278.13
2023-03-12T10:58:01.064Z,100277.06
2023-03-12T11:00:33.968Z,100278.59
2023-03-12T11:03:07.018Z,100263.78
2023-03-12T11:05:51.385Z,100270.59
2023-03-12T11:08:24.913Z,100275.88
2023-03-12T11:10:56.269Z,100261.13
2023-03-12T11:13:31.517Z,100281.75
2023-03-12T11:16:03.814Z,100249.88
2023-03-12T11:18:37.252Z,100283.41
2023-03-12T11:21:22.284Z,100274.72
2023-03-12T11:24:10.014Z,100270.19
2023-03-12T11:26:49.402Z,100260.31
2023-03-12T11:29:28.392Z,100232.13
2023-03-12T11:32:08.048Z,100244.22
2023-03-12T11:34:41.492Z,100246.75
2023-03-12T11:37:24.029Z,100244.56
2023-03-12T11:40:12.620Z,100244.06
2023-03-12T11:42:56.106Z,100235.47
2023-03-12T11:45:32.455Z,100238.94
2023-03-12T11:48:15.878Z,100225.63
2023-03-12T11:50:56.261Z,100212.50
2023-03-12T11:53:43.196Z,100204.78
2023-03-12T11:56:27.860Z,100212.63
2023-03-12T11:59:28.965Z,100184.63
2023-03-12T12:02:14.730Z,100203.91
2023-03-12T12:05:21.181Z,100200.31
2023-03-12T12:08:03.452Z,100198.91
2023-03-12T12:10:45.495Z,100182.72
2023-03-12T12:13:27.125Z,100194.28
2023-03-12T12:16:10.581Z,100178.81
2023-03-12T12:19:03.440Z,100170.22
2023-03-12T12:21:55.569Z,100162.25
2023-03-12T12:24:40.707Z,100160.84
2023-03-12T12:27:22.642Z,100154.00
2023-03-12T12:30:09.371Z,100146.56
2023-03-12T12:32:55.384Z,100151.59
2023-03-12T12:35:33.211Z,100163.31
2023-03-12T12:38:09.868Z,100164.56
2023-03-12T12:40:43.706Z,100164.00
2023-03-12T12:43:28.365Z,100159.41
2023-03-12T12:46:03.018Z,100143.88
2023-03-12T12:48:39.620Z,100116.78
2023-03-12T12:51:12.452Z,100099.50
2023-03-12T12:53:50.585Z,100131.59
2023-03-12T12:56:32.064Z,100137.41
2023-03-12T12:59:25.130Z,100122.47
2023-03-12T13:01:57.493Z,100127.13
2023-03-12T13:04:31.187Z,100129.41
2023-03-12T13:07:07.041Z,100120.97
2023-03-12T13:09:43.931Z,100117.41
2023-03-12T13:12:23.323Z,100123.06
2023-03-12T13:14:57.809Z,100117.91
2023-03-12T13:17:31.687Z,100110.41
2023-03-12T13:20:20.996Z,100095.69
2023-03-12T13:23:03.940Z,100099.38
2023-03-12T13:25:50.325Z,100090.47
2023-03-12T13:28:35.102Z,100098.72
2023-03-12T13:31:39.289Z,100093.34
2023-03-12T13:34:54.782Z,100084.47
2023-03-12T13:37:50.780Z,100078.03
2023-03-12T13:40:37.850Z,100068.81
2023-03-12T13:43:15.608Z,100076.16
2023-03-12T13:46:03.257Z,100062.69
2023-03-12T13:48:38.817Z,100056.94
2023-03-12T13:51:19.717Z,100047.75
2023-03-12T13:53:53.001Z,100048.09
2023-03-12T13:56:29.235Z,100048.25
2023-03-12T13:59:04.296Z,100056.53
2023-03-12T14:01:39.676Z,100039.88
2023-03-12T14:04:20.308Z,100038.06
2023-03-12T14:07:01.811Z,100039.03
2023-03-12T14:09:43.121Z,100016.53
2023-03-12T14:12:21.649Z,100018.38
2023-03-12T14:15:10.381Z,100032.13
2023-03-12T14:17:42.426Z,100030.34
2023-03-12T14:20:21.615Z,100032.75
2023-03-12T14:22:57.376Z,100025.69
2023-03-12T14:25:38.218Z,100028.75
2023-03-12T14:28:16.399Z,100030.09
2023-03-12T14:30:53.456Z,100023.59
2023-03-12T14:33:29.045Z,100022.63
2023-03-12T14:36:10.269Z,100019.75
2023-03-12T14:38:44.058Z,100024.50
2023-03-12T14:41:19.473Z,100025.28
2023-03-12T14:43:54.819Z,100017.75
2023-03-12T14:46:27.486Z,99976.72
2023-03-12T14:48:58.147Z,100021.25
2023-03-12T14:51:33.423Z,100023.03
2023-03-12T14:54:05.606Z,100016.91
2023-03-12T14:56:37.370Z,100021.41
2023-03-12T14:59:25.574Z,100023.97
2023-03-12T15:02:02.704Z,100012.72
2023-03-12T15:04:36.170Z,100003.69
2023-03-12T15:07:14.472Z,100008.41
2023-03-12T15:09:49.983Z,100006.09
2023-03-12T15:12:23.681Z,100002.22
2023-03-12T15:14:58.604Z,100005.19
2023-03-12T15:17:32.204Z,100012.94
2023-03-12T15:20:09.505Z,100012.94
2023-03-12T15:22:44.175Z,99991.72
2023-03-12T15:25:28.656Z,99902.59
2023-03-12T15:28:09.464Z,100001.59
2023-03-12T15:30:42.064Z,99996.44
2023-03-12T15:33:14.913Z,99938.16
2023-03-12T15:36:02.286Z,99968.97
2023-03-12T15:38:38.433Z,99867.81
2023-03-12T15:41:12.270Z,99989.84
2023-03-12T15:43:47.998Z,99991.59
2023-03-12T15:46:21.300Z,99998.44
2023-03-12T15:48:54.171Z,99990.09
2023-03-12T15:51:37.140Z,99978.66
2023-03-12T15:54:28.611Z,99986.31
2023-03-12T15:57:14.956Z,99993.03
2023-03-12T15:59:46.337Z,100000.84
2023-03-12T16:02:16.944Z,99994.22
2023-03-12T16:04:50.064Z,99960.97
2023-03-12T16:07:20.799Z,99995.63
2023-03-12T16:09:54.143Z,99936.72
2023-03-12T16:12:25.007Z,99995.69
2023-03-12T16:14:56.149Z,100001.03
2023-03-12T16:17:26.872Z,99982.47
2023-03-12T16:19:57.601Z,99997.56
2023-03-12T16:22:29.072Z,99985.84
2023-03-12T16:25:02.737Z,99988.97
2023-03-12T16:27:39.194Z,99929.28
2023-03-12T16:30:17.796Z,99981.47
2023-03-12T16:32:48.522Z,99983.72
2023-03-12T16:35:21.338Z,99988.13
2023-03-12T16:37:52.634Z,99977.69
2023-03-12T16:40:33.281Z,99989.78
2023-03-12T16:43:06.870Z,99992.00
2023-03-12T16:45:39.317Z,99926.63
2023-03-12T16:48:10.190Z,99998.06
2023-03-12T16:50:40.961Z,99994.50
2023-03-12T16:53:14.624Z,99999.19
2023-03-12T16:55:52.867Z,99917.28
2023-03-12T16:58:25.110Z,99996.97
2023-03-12T17:01:00.210Z,99925.56
2023-03-12T17:03:36.565Z,100006.84
2023-03-12T17:06:09.405Z,100010.53
2023-03-12T17:08:40.206Z,100002.44
2023-03-12T17:11:19.808Z,100000.69
2023-03-12T17:13:53.658Z,100009.78
2023-03-12T17:16:24.426Z,99986.41
2023-03-12T17:18:55.538Z,99932.28
2023-03-12T17:21:26.400Z,100008.38
2023-03-12T17:24:11.961Z,99951.44
2023-03-12T17:26:46.533Z,99991.66
2023-03-12T17:29:16.891Z,100005.03
2023-03-12T17:31:47.604Z,100003.72
2023-03-12T17:34:18.582Z,99995.19
2023-03-12T17:36:49.145Z,99978.09
2023-03-12T17:39:20.277Z,99999.00
2023-03-12T17:41:53.622Z,100004.00
2023-03-12T17:44:24.357Z,100006.50
2023-03-12T17:46:59.744Z,100003.75
2023-03-12T17:49:30.770Z,99999.31
2023-03-12T17:52:02.194Z,99998.00
2023-03-12T17:54:33.062Z,99976.50
2023-03-12T17:57:06.415Z,100002.25
2023-03-12T17:59:36.957Z,99992.56
2023-03-12T18:02:07.471Z,100008.47
2023-03-12T18:04:38.075Z,100013.91
2023-03-12T18:07:08.645Z,100012.28
2023-03-12T18:09:39.243Z,100015.56
2023-03-12T18:12:13.001Z,100013.06
2023-03-12T18:14:43.951Z,100020.72
2023-03-12T18:17:14.974Z,100006.44
2023-03-12T18:19:46.056Z,100020.41
2023-03-12T18:22:24.805Z,100015.88
2023-03-12T18:24:59.983Z,100016.31
2023-03-12T18:27:34.563Z,100019.38
2023-03-12T18:30:06.135Z,100023.22
2023-03-12T18:32:39.548Z,100022.91
2023-03-12T18:35:13.283Z,99980.06
2023-03-12T18:37:46.655Z,100010.53
2023-03-12T18:40:17.234Z,100007.28
2023-03-12T18:42:53.211Z,99907.69
2023-03-12T18:45:26.057Z,99984.66
2023-03-12T18:47:59.772Z,100016.56
2023-03-12T18:50:32.570Z,100026.88
2023-03-12T18:53:19.942Z,100019.09
2023-03-12T18:55:55.432Z,100025.41
2023-03-12T18:58:40.196Z,100027.31
2023-03-12T19:01:19.009Z,100025.41
2023-03-12T19:03:51.266Z,100026.75
2023-03-12T19:06:29.643Z,100018.59
2023-03-12T19:09:07.863Z,100022.59
2023-03-12T19:11:44.627Z,100031.00
2023-03-12T19:14:21.142Z,99975.50
2023-03-12T19:16:51.630Z,100024.06
2023-03-12T19:19:22.553Z,100026.25
2023-03-12T19:21:53.329Z,100025.81
2023-03-12T19:24:24.078Z,100029.34
2023-03-12T19:26:54.831Z,100010.78
2023-03-12T19:29:28.313Z,100028.28
2023-03-12T19:31:59.244Z,100003.84
2023-03-12T19:34:30.104Z,100022.38
2023-03-12T19:37:00.670Z,100020.31
2023-03-12T19:39:31.246Z,100029.44
2023-03-12T19:42:01.947Z,100028.41
2023-03-12T19:44:38.981Z,100009.88
2023-03-12T19:47:09.881Z,100023.13
2023-03-12T19:49:40.963Z,100005.16
2023-03-12T19:52:14.135Z,99945.13
2023-03-12T19:54:51.707Z,100009.25
2023-03-12T19:57:26.142Z,100000.84
2023-03-12T19:59:59.944Z,99999.19
2023-03-12T20:02:30.757Z,99933.84
2023-03-12T20:05:03.729Z,99814.66
2023-03-12T20:07:34.730Z,99979.13
2023-03-12T20:10:05.758Z,99950.16
2023-03-12T20:12:36.509Z,99975.91
2023-03-12T20:15:11.096Z,99974.13
2023-03-12T20:17:42.192Z,99888.44
2023-03-12T20:20:14.376Z,99976.78
2023-03-12T20:22:44.941Z,99974.41
2023-03-12T20:25:15.516Z,99972.22
2023-03-12T20:27:46.319Z,99984.03
2023-03-12T20:30:19.562Z,99976.78
2023-03-12T20:32:50.227Z,99991.06
2023-03-12T20:35:21.059Z,99958.13
2023-03-12T20:37:52.172Z,100008.63
2023-03-12T20:40:22.963Z,99893.88
2023-03-12T20:42:53.730Z,100013.16
2023-03-12T20:45:27.013Z,99973.28
2023-03-12T20:47:58.790Z,100007.44
2023-03-12T20:50:29.373Z,100006.41
2023-03-12T20:52:59.785Z,100023.69
2023-03-12T20:55:30.609Z,100009.50
2023-03-12T20:58:01.599Z,100025.44
2023-03-12T21:00:34.889Z,100015.25
2023-03-12T21:03:05.361Z,99947.31
2023-03-12T21:05:35.945Z,100006.84
2023-03-12T21:08:06.956Z,100006.72
2023-03-12T21:10:39.231Z,99842.16
2023-03-12T21:13:09.793Z,100001.28
2023-03-12T21:15:43.012Z,99974.50
2023-03-12T21:18:13.638Z,99994.09
2023-03-12T21:20:45.518Z,99990.38
2023-03-12T21:23:16.311Z,99997.16
2023-03-12T21:25:46.802Z,99990.97
2023-03-12T21:28:18.325Z,100003.03
2023-03-12T21:30:51.472Z,99910.97
2023-03-12T21:33:22.053Z,99989.75
2023-03-12T21:35:52.678Z,99979.44
2023-03-12T21:38:23.608Z,99928.25
2023-03-12T21:40:57.500Z,99984.03
2023-03-12T21:43:28.409Z,99972.38
2023-03-12T21:46:06.265Z,99975.16
2023-03-12T21:48:37.116Z,99965.44
2023-03-12T21:51:10.369Z,99920.63
2023-03-12T21:53:41.751Z,99969.59
2023-03-12T21:56:12.968Z,99957.78
2023-03-12T21:58:44.423Z,99953.53
2023-03-12T22:01:19.533Z,99960.84
2023-03-12T22:03:50.378Z,99961.16
2023-03-12T22:06:20.980Z,99958.00
2023-03-12T22:08:52.468Z,99954.19
2023-03-12T22:11:23.055Z,99899.13
2023-03-12T22:13:53.601Z,99951.03
2023-03-12T22:16:26.976Z,99946.91
2023-03-12T22:18:57.530Z,99949.41
2023-03-12T22:21:28.840Z,99948.06
2023-03-12T22:24:00.007Z,99939.31
2023-03-12T22:26:31.021Z,99946.25
2023-03-12T22:29:02.304Z,99934.97
2023-03-12T22:31:35.821Z,99916.16
2023-03-12T22:34:06.928Z,99916.69
2023-03-12T22:36:37.597Z,99910.78
2023-03-12T22:39:08.540Z,99920.19
2023-03-12T22:41:39.267Z,99904.63
2023-03-12T22:44:10.587Z,99913.69
2023-03-12T22:46:43.901Z,99921.50
2023-03-12T22:49:14.448Z,99912.19
2023-03-12T22:51:45.201Z,99902.16
2023-03-12T22:54:15.752Z,99896.56
2023-03-12T22:56:46.260Z,99894.16
2023-03-12T22:59:16.797Z,99888.44
2023-03-12T23:01:49.913Z,99886.59
2023-03-12T23:04:20.549Z,99879.81
2023-03-12T23:06:51.742Z,99881.59
2023-03-12T23:09:24.805Z,99874.19
2023-03-12T23:11:55.428Z,99880.47
2023-03-12T23:14:26.011Z,99878.53
2023-03-12T23:17:00.149Z,99867.25
2023-03-12T23:19:35.093Z,99872.56
2023-03-12T23:22:05.635Z,99851.81
2023-03-12T23:24:36.341Z,99847.28
2023-03-12T23:27:07.418Z,99855.25
2023-03-12T23:29:38.224Z,99845.22
2023-03-12T23:32:11.594Z,99850.66
2023-03-12T23:34:42.154Z,99847.38
2023-03-12T23:37:12.931Z,99841.88
2023-03-12T23:39:54.031Z,99831.25
2023-03-12T23:42:25.474Z,99819.03
2023-03-12T23:44:55.949Z,99828.31
2023-03-12T23:47:29.049Z,99835.25
2023-03-12T23:49:59.802Z,99822.16
2023-03-12T23:52:30.432Z,99828.91
2023-03-12T23:55:01.242Z,99827.28
2023-03-12T23:57:32.385Z,99826.69
